CCGS Neocaligus — CG7677 — position and weather

sailwx.info

Track history (hours):
 
Tides and Currents Weather Stations Pressure Air Temp Water Temp Dewpoint Dewpoint Depression Visibility Wind Speed Wind Dir Waves Ship Positions

CCGS Neocaligus

Last reported at 2014-Jul-25 03:32 UTC. Time now 2014-Jul-25 03:40 UTC.
Position N 49°13' W 123°57'.

Length 23 m; draft 3.5 m.

Type: Fishing. MMSI: 316001759.

Date/timePositionNaut miles runAvg speedWind from/ knotsBaromVisibWave heightAir tempDewpointWater temp
2014-Jul-25 03:32N 49°13' W 123°57'0 0.0
2014-Jul-25 02:32N 49°13' W 123°57'0 0.0
2014-Jul-25 01:32N 49°13' W 123°57'0 0.0
2014-Jul-25 00:32N 49°13' W 123°57'0 0.0
2014-Jul-24 23:32N 49°13' W 123°57'0 0.0
2014-Jul-24 22:32N 49°13' W 123°57'0 0.0
2014-Jul-24 21:32N 49°13' W 123°57'0 0.0
2014-Jul-24 20:32N 49°13' W 123°57'0 0.0
2014-Jul-24 19:32N 49°13' W 123°57'0 0.0
2014-Jul-24 18:26N 49°13' W 123°57'0 0.0
2014-Jul-24 17:32N 49°13' W 123°57'0 0.0
2014-Jul-24 16:32N 49°13' W 123°57'0 0.0
2014-Jul-24 15:26N 49°13' W 123°57'0 0.0
2014-Jul-24 14:32N 49°13' W 123°57'0 0.0
2014-Jul-24 12:11N 49°13' W 123°57'0 0.0
2014-Jul-24 11:32N 49°13' W 123°57'0 0.0
2014-Jul-24 10:32N 49°13' W 123°57'0 0.0
2014-Jul-24 09:23N 49°13' W 123°57'0 0.0
2014-Jul-24 08:26N 49°13' W 123°57'0 0.0
2014-Jul-24 07:29N 49°13' W 123°57'0 0.0
2014-Jul-24 06:26N 49°13' W 123°57'0 0.0
2014-Jul-24 05:29N 49°13' W 123°57'0 0.0
2014-Jul-24 04:26N 49°13' W 123°57'0 0.0
2014-Jul-24 03:32N 49°13' W 123°57'0 0.0
2014-Jul-24 02:32N 49°13' W 123°57'0 0.0
2014-Jul-24 01:26N 49°13' W 123°57'3 3.2
2014-Jul-24 00:34N 49°12' W 123°53'9 8.7
2014-Jul-23 23:33N 49°15' W 123°40'9 8.9
2014-Jul-23 22:34N 49°15' W 123°27'6 6.1
2014-Jul-23 21:34N 49°16' W 123°17'1 1.2
2014-Jul-23 20:34N 49°15' W 123°18'2 2.1
2014-Jul-23 19:33N 49°12' W 123°18'0 0.3
2014-Jul-23 18:34N 49°12' W 123°18'3 2.6
2014-Jul-23 17:34N 49°10' W 123°18'1 1.4
2014-Jul-23 16:34N 49°08' W 123°18'1 0.9
2014-Jul-23 15:34N 49°08' W 123°19'4 4.4
2014-Jul-23 14:33N 49°07' W 123°12'1 0.6
2014-Jul-23 13:33N 49°07' W 123°11'0 0.0
2014-Jul-23 12:33N 49°07' W 123°11'0 0.0
2014-Jul-23 11:33N 49°07' W 123°11'0 0.0
2014-Jul-23 10:33N 49°07' W 123°11'0 0.0
2014-Jul-23 09:30N 49°07' W 123°11'0 0.0
2014-Jul-23 08:33N 49°07' W 123°11'0 0.0
2014-Jul-23 07:33N 49°07' W 123°11'0 0.0
2014-Jul-23 06:33N 49°07' W 123°11'0 0.0
2014-Jul-23 05:33N 49°07' W 123°11'0 0.0
2014-Jul-23 04:33N 49°07' W 123°11'0 0.0
2014-Jul-23 03:33N 49°07' W 123°11'0 0.0
2014-Jul-23 02:33N 49°07' W 123°11'0 0.0
2014-Jul-23 01:30N 49°07' W 123°11'0 0.0
2014-Jul-23 00:34N 49°07' W 123°11'0 0.1
2014-Jul-22 23:33N 49°07' W 123°12'5 5.4
2014-Jul-22 22:34N 49°05' W 123°19'1 1.4
2014-Jul-22 21:33N 49°04' W 123°18'3 2.8
2014-Jul-22 20:33N 49°02' W 123°16'2 1.7
2014-Jul-22 19:33N 49°01' W 123°13'3 3.1
2014-Jul-22 18:33N 49°01' W 123°09'1 0.7
2014-Jul-22 17:33N 49°00' W 123°10'3 2.7
2014-Jul-22 16:33N 49°01' W 123°13'2 2.3
2014-Jul-22 15:33N 49°03' W 123°16'3 3.0
2014-Jul-22 14:33N 49°05' W 123°19'6 5.3
2014-Jul-22 13:30N 49°07' W 123°11'0 0.0
2014-Jul-22 12:33N 49°07' W 123°11'0 0.0
2014-Jul-22 11:33N 49°07' W 123°11'0 0.0
2014-Jul-22 10:33N 49°07' W 123°11'0 0.0
2014-Jul-22 09:33N 49°07' W 123°11'0 0.0
2014-Jul-22 08:33N 49°07' W 123°11'0 0.0
2014-Jul-22 07:30N 49°07' W 123°11'0 0.0
2014-Jul-22 06:33N 49°07' W 123°11'0 0.0
2014-Jul-22 05:30N 49°07' W 123°11'0 0.0
2014-Jul-22 04:33N 49°07' W 123°11'0 0.0
2014-Jul-22 03:33N 49°07' W 123°11'0 0.0
2014-Jul-22 02:33N 49°07' W 123°11'1 1.3
2014-Jul-22 01:34N 49°08' W 123°13'7 6.6
2014-Jul-22 00:33N 49°02' W 123°18'9 9.4
2014-Jul-21 23:33N 48°52' W 123°18'7 7.1
2014-Jul-21 22:33N 48°46' W 123°22'5 5.1
2014-Jul-21 21:32N 48°43' W 123°29'3 2.6
2014-Jul-21 20:34N 48°44' W 123°32'1 2.4
2014-Jul-21 20:18N 48°44' W 123°33'1 1.9
2014-Jul-21 19:33N 48°45' W 123°34'2 1.6
2014-Jul-21 18:33N 48°44' W 123°36'1 1.3
2014-Jul-21 17:33N 48°44' W 123°34'1 1.2
2014-Jul-21 16:33N 48°45' W 123°35'1 0.7
2014-Jul-21 15:30N 48°45' W 123°37'1 0.7
2014-Jul-21 14:33N 48°44' W 123°37'0 0.0
2014-Jul-21 12:31N 48°44' W 123°37'0 0.0
2014-Jul-21 11:13N 48°44' W 123°37'0 0.0
2014-Jul-21 07:13N 48°44' W 123°37'0 0.0
2014-Jul-21 05:07N 48°44' W 123°37'0 0.0
2014-Jul-21 04:25N 48°44' W 123°37'0 0.0
2014-Jul-21 02:25N 48°44' W 123°37'0 0.0
2014-Jul-21 00:13N 48°44' W 123°37'2 2.8
2014-Jul-20 23:33N 48°44' W 123°34'7 7.1
2014-Jul-20 22:33N 48°51' W 123°35'9 9.1
2014-Jul-20 21:33N 48°59' W 123°43'9 9.0
2014-Jul-20 20:33N 49°07' W 123°47'8 8.5
2014-Jul-20 19:33N 49°13' W 123°57'0 0.1
2014-Jul-20 18:30N 49°13' W 123°57'0 0.0
2014-Jul-20 17:33N 49°13' W 123°57'0 0.0
2014-Jul-20 16:27N 49°13' W 123°57'0 0.0
2014-Jul-20 15:24N 49°13' W 123°57'0 0.0
2014-Jul-20 14:33N 49°13' W 123°57'0 0.0
2014-Jul-20 13:30N 49°13' W 123°57'0 0.0
2014-Jul-20 12:24N 49°13' W 123°57'0 0.0
2014-Jul-20 11:33N 49°13' W 123°57'0 0.0
2014-Jul-20 10:27N 49°13' W 123°57'0 0.0
2014-Jul-20 09:33N 49°13' W 123°57'0 0.0
2014-Jul-20 08:27N 49°13' W 123°57'0 0.0
2014-Jul-20 07:33N 49°13' W 123°57'0 0.0
2014-Jul-20 06:33N 49°13' W 123°57'0 0.0
2014-Jul-20 04:30N 49°13' W 123°57'0 0.0
2014-Jul-20 03:33N 49°13' W 123°57'0 0.0
2014-Jul-20 02:27N 49°13' W 123°57'0 0.0
2014-Jul-20 01:24N 49°13' W 123°57'0 0.0
2014-Jul-20 00:21N 49°13' W 123°57'0 0.0
2014-Jul-19 23:33N 49°13' W 123°57'0 0.0
2014-Jul-19 20:33N 49°13' W 123°57'0 0.0
2014-Jul-19 19:30N 49°13' W 123°57'0 0.0
2014-Jul-19 18:33N 49°13' W 123°57'0 0.0
2014-Jul-19 17:33N 49°13' W 123°57'0 0.0
2014-Jul-19 16:33N 49°13' W 123°57'0 0.0
2014-Jul-19 15:33N 49°13' W 123°57'0 0.0
2014-Jul-19 14:33N 49°13' W 123°57'0 0.0
2014-Jul-19 13:33N 49°13' W 123°57'0 0.0
2014-Jul-19 12:21N 49°13' W 123°57'0 0.0
2014-Jul-19 10:30N 49°13' W 123°57'0 0.0
2014-Jul-19 09:33N 49°13' W 123°57'0 0.0
2014-Jul-19 08:27N 49°13' W 123°57'0 0.0
2014-Jul-19 07:33N 49°13' W 123°57'0 0.0
2014-Jul-19 06:30N 49°13' W 123°57'0 0.0
2014-Jul-19 05:33N 49°13' W 123°57'0 0.0
2014-Jul-19 04:27N 49°13' W 123°57'0 0.0
2014-Jul-19 03:30N 49°13' W 123°57'0 0.0
2014-Jul-19 02:30N 49°13' W 123°57'0 0.0
2014-Jul-18 23:15N 49°13' W 123°57'0 0.0
2014-Jul-18 22:33N 49°13' W 123°57'0 0.0
2014-Jul-18 21:33N 49°13' W 123°57'0 0.0
2014-Jul-18 19:30N 49°13' W 123°57'0 0.0
2014-Jul-18 18:24N 49°13' W 123°57'0 0.0
2014-Jul-18 17:33N 49°13' W 123°57'0 0.0
2014-Jul-18 15:27N 49°13' W 123°57'0 0.0
2014-Jul-18 14:30N 49°13' W 123°57'0 0.0
2014-Jul-18 13:30N 49°13' W 123°57'0 0.0
2014-Jul-18 12:30N 49°13' W 123°57'0 0.0
2014-Jul-18 11:30N 49°13' W 123°57'0 0.0
2014-Jul-18 10:18N 49°13' W 123°57'0 0.0
2014-Jul-18 08:30N 49°13' W 123°57'0 0.0
2014-Jul-18 07:24N 49°13' W 123°57'0 0.0
2014-Jul-18 06:30N 49°13' W 123°57'0 0.0
2014-Jul-18 05:24N 49°13' W 123°57'0 0.0
2014-Jul-18 04:30N 49°13' W 123°57'0 0.0
2014-Jul-18 03:30N 49°13' W 123°57'0 0.0
2014-Jul-18 02:30N 49°13' W 123°57'0 0.0
2014-Jul-18 01:24N 49°13' W 123°57'0 0.0
2014-Jul-18 00:06N 49°13' W 123°57'0 0.0
2014-Jul-17 23:21N 49°13' W 123°57'0 0.0
2014-Jul-17 18:21N 49°13' W 123°57'0 0.0
2014-Jul-17 15:33N 49°13' W 123°57'0 0.0
2014-Jul-17 13:06N 49°13' W 123°57'0 0.0
2014-Jul-17 12:09N 49°13' W 123°57'0 0.0
2014-Jul-17 10:24N 49°13' W 123°57'0 0.0
2014-Jul-17 09:27N 49°13' W 123°57'0 0.0
2014-Jul-17 08:33N 49°13' W 123°57'0 0.0
2014-Jul-17 07:21N 49°13' W 123°57'0 0.0
2014-Jul-17 06:33N 49°13' W 123°57'0 0.0
2014-Jul-17 05:30N 49°13' W 123°57'0 0.0
2014-Jul-17 04:33N 49°13' W 123°57'0 0.0
2014-Jul-17 03:30N 49°13' W 123°57'0 0.0
2014-Jul-17 02:30N 49°13' W 123°57'0 0.0
2014-Jul-17 01:30N 49°13' W 123°57'0 0.0
2014-Jul-17 00:30N 49°13' W 123°57'0 0.0
2014-Jul-16 23:27N 49°13' W 123°57'0 0.0
2014-Jul-16 22:11N 49°13' W 123°57'2 3.9
2014-Jul-16 21:33N 49°11' W 123°54'9 8.8
2014-Jul-16 20:33N 49°05' W 123°45'9 8.9
2014-Jul-16 19:31N 48°59' W 123°35'8 7.9
2014-Jul-16 18:32N 48°53' W 123°26'9 8.3
2014-Jul-16 17:29N 48°48' W 123°15'5 5.3
2014-Jul-16 16:33N 48°45' W 123°09'1 1.1
2014-Jul-16 15:33N 48°46' W 123°11'2 2.3
2014-Jul-16 14:34N 48°45' W 123°07'4 0.4
2014-Jul-16 04:15N 48°45' W 123°14'0 0.0
2014-Jul-16 02:06N 48°45' W 123°14'0 0.0
2014-Jul-16 01:12N 48°45' W 123°14'6 9.1
2014-Jul-16 00:33N 48°39' W 123°14'8 8.2
2014-Jul-15 23:33N 48°31' W 123°14'3 2.6
2014-Jul-15 22:33N 48°28' W 123°12'1 1.2
2014-Jul-15 21:33N 48°29' W 123°11'2 1.8
2014-Jul-15 20:33N 48°30' W 123°13'2 2.0
2014-Jul-15 19:33N 48°31' W 123°16'2 1.6
2014-Jul-15 18:33N 48°30' W 123°14'1 1.2
2014-Jul-15 17:33N 48°29' W 123°14'1 1.5
2014-Jul-15 16:33N 48°29' W 123°16'1 1.0
2014-Jul-15 15:33N 48°30' W 123°17'6 5.5
2014-Jul-15 14:33N 48°35' W 123°21'5 2.1
2014-Jul-15 12:19N 48°39' W 123°24'0 0.0
2014-Jul-15 11:04N 48°39' W 123°24'0 0.0
2014-Jul-15 10:31N 48°39' W 123°24'0 0.0
2014-Jul-15 09:31N 48°39' W 123°24'0 0.0
2014-Jul-15 08:31N 48°39' W 123°24'0 0.0
2014-Jul-15 07:29N 48°39' W 123°24'0 0.0
2014-Jul-15 06:26N 48°39' W 123°24'0 0.0
2014-Jul-15 05:28N 48°39' W 123°24'0 0.0
2014-Jul-15 04:32N 48°39' W 123°24'  
Track history (hours):
 
Tides and Currents Weather Stations Pressure Air Temp Water Temp Dewpoint Dewpoint Depression Visibility Wind Speed Wind Dir Waves Ship Positions

CCGS Neocaligus

Last reported at 2014-Jul-25 03:32 UTC. Time now 2014-Jul-25 03:40 UTC.
Position N 49°13' W 123°57'.

Length 23 m; draft 3.5 m.

Type: Fishing. MMSI: 316001759.

Date/timePositionNaut miles runAvg speedWind from/ knotsBaromVisibWave heightAir tempDewpointWater temp
2014-Jul-25 03:32N 49°13' W 123°57'0 0.0
2014-Jul-25 02:32N 49°13' W 123°57'0 0.0
2014-Jul-25 01:32N 49°13' W 123°57'0 0.0
2014-Jul-25 00:32N 49°13' W 123°57'0 0.0
2014-Jul-24 23:32N 49°13' W 123°57'0 0.0
2014-Jul-24 22:32N 49°13' W 123°57'0 0.0
2014-Jul-24 21:32N 49°13' W 123°57'0 0.0
2014-Jul-24 20:32N 49°13' W 123°57'0 0.0
2014-Jul-24 19:32N 49°13' W 123°57'0 0.0
2014-Jul-24 18:26N 49°13' W 123°57'0 0.0
2014-Jul-24 17:32N 49°13' W 123°57'0 0.0
2014-Jul-24 16:32N 49°13' W 123°57'0 0.0
2014-Jul-24 15:26N 49°13' W 123°57'0 0.0
2014-Jul-24 14:32N 49°13' W 123°57'0 0.0
2014-Jul-24 12:11N 49°13' W 123°57'0 0.0
2014-Jul-24 11:32N 49°13' W 123°57'0 0.0
2014-Jul-24 10:32N 49°13' W 123°57'0 0.0
2014-Jul-24 09:23N 49°13' W 123°57'0 0.0
2014-Jul-24 08:26N 49°13' W 123°57'0 0.0
2014-Jul-24 07:29N 49°13' W 123°57'0 0.0
2014-Jul-24 06:26N 49°13' W 123°57'0 0.0
2014-Jul-24 05:29N 49°13' W 123°57'0 0.0
2014-Jul-24 04:26N 49°13' W 123°57'0 0.0
2014-Jul-24 03:32N 49°13' W 123°57'0 0.0
2014-Jul-24 02:32N 49°13' W 123°57'0 0.0
2014-Jul-24 01:26N 49°13' W 123°57'3 3.2
2014-Jul-24 00:34N 49°12' W 123°53'9 8.7
2014-Jul-23 23:33N 49°15' W 123°40'9 8.9
2014-Jul-23 22:34N 49°15' W 123°27'6 6.1
2014-Jul-23 21:34N 49°16' W 123°17'1 1.2
2014-Jul-23 20:34N 49°15' W 123°18'2 2.1
2014-Jul-23 19:33N 49°12' W 123°18'0 0.3
2014-Jul-23 18:34N 49°12' W 123°18'3 2.6
2014-Jul-23 17:34N 49°10' W 123°18'1 1.4
2014-Jul-23 16:34N 49°08' W 123°18'1 0.9
2014-Jul-23 15:34N 49°08' W 123°19'4 4.4
2014-Jul-23 14:33N 49°07' W 123°12'1 0.6
2014-Jul-23 13:33N 49°07' W 123°11'0 0.0
2014-Jul-23 12:33N 49°07' W 123°11'0 0.0
2014-Jul-23 11:33N 49°07' W 123°11'0 0.0
2014-Jul-23 10:33N 49°07' W 123°11'0 0.0
2014-Jul-23 09:30N 49°07' W 123°11'0 0.0
2014-Jul-23 08:33N 49°07' W 123°11'0 0.0
2014-Jul-23 07:33N 49°07' W 123°11'0 0.0
2014-Jul-23 06:33N 49°07' W 123°11'0 0.0
2014-Jul-23 05:33N 49°07' W 123°11'0 0.0
2014-Jul-23 04:33N 49°07' W 123°11'0 0.0
2014-Jul-23 03:33N 49°07' W 123°11'0 0.0
2014-Jul-23 02:33N 49°07' W 123°11'0 0.0
2014-Jul-23 01:30N 49°07' W 123°11'0 0.0
2014-Jul-23 00:34N 49°07' W 123°11'0 0.1
2014-Jul-22 23:33N 49°07' W 123°12'5 5.4
2014-Jul-22 22:34N 49°05' W 123°19'1 1.4
2014-Jul-22 21:33N 49°04' W 123°18'3 2.8
2014-Jul-22 20:33N 49°02' W 123°16'2 1.7
2014-Jul-22 19:33N 49°01' W 123°13'3 3.1
2014-Jul-22 18:33N 49°01' W 123°09'1 0.7
2014-Jul-22 17:33N 49°00' W 123°10'3 2.7
2014-Jul-22 16:33N 49°01' W 123°13'2 2.3
2014-Jul-22 15:33N 49°03' W 123°16'3 3.0
2014-Jul-22 14:33N 49°05' W 123°19'6 5.3
2014-Jul-22 13:30N 49°07' W 123°11'0 0.0
2014-Jul-22 12:33N 49°07' W 123°11'0 0.0
2014-Jul-22 11:33N 49°07' W 123°11'0 0.0
2014-Jul-22 10:33N 49°07' W 123°11'0 0.0
2014-Jul-22 09:33N 49°07' W 123°11'0 0.0
2014-Jul-22 08:33N 49°07' W 123°11'0 0.0
2014-Jul-22 07:30N 49°07' W 123°11'0 0.0
2014-Jul-22 06:33N 49°07' W 123°11'0 0.0
2014-Jul-22 05:30N 49°07' W 123°11'0 0.0
2014-Jul-22 04:33N 49°07' W 123°11'0 0.0
2014-Jul-22 03:33N 49°07' W 123°11'0 0.0
2014-Jul-22 02:33N 49°07' W 123°11'1 1.3
2014-Jul-22 01:34N 49°08' W 123°13'7 6.6
2014-Jul-22 00:33N 49°02' W 123°18'9 9.4
2014-Jul-21 23:33N 48°52' W 123°18'7 7.1
2014-Jul-21 22:33N 48°46' W 123°22'5 5.1
2014-Jul-21 21:32N 48°43' W 123°29'3 2.6
2014-Jul-21 20:34N 48°44' W 123°32'1 2.4
2014-Jul-21 20:18N 48°44' W 123°33'1 1.9
2014-Jul-21 19:33N 48°45' W 123°34'2 1.6
2014-Jul-21 18:33N 48°44' W 123°36'1 1.3
2014-Jul-21 17:33N 48°44' W 123°34'1 1.2
2014-Jul-21 16:33N 48°45' W 123°35'1 0.7
2014-Jul-21 15:30N 48°45' W 123°37'1 0.7
2014-Jul-21 14:33N 48°44' W 123°37'0 0.0
2014-Jul-21 12:31N 48°44' W 123°37'0 0.0
2014-Jul-21 11:13N 48°44' W 123°37'0 0.0
2014-Jul-21 07:13N 48°44' W 123°37'0 0.0
2014-Jul-21 05:07N 48°44' W 123°37'0 0.0
2014-Jul-21 04:25N 48°44' W 123°37'0 0.0
2014-Jul-21 02:25N 48°44' W 123°37'0 0.0
2014-Jul-21 00:13N 48°44' W 123°37'2 2.8
2014-Jul-20 23:33N 48°44' W 123°34'7 7.1
2014-Jul-20 22:33N 48°51' W 123°35'9 9.1
2014-Jul-20 21:33N 48°59' W 123°43'9 9.0
2014-Jul-20 20:33N 49°07' W 123°47'8 8.5
2014-Jul-20 19:33N 49°13' W 123°57'0 0.1
2014-Jul-20 18:30N 49°13' W 123°57'0 0.0
2014-Jul-20 17:33N 49°13' W 123°57'0 0.0
2014-Jul-20 16:27N 49°13' W 123°57'0 0.0
2014-Jul-20 15:24N 49°13' W 123°57'0 0.0
2014-Jul-20 14:33N 49°13' W 123°57'0 0.0
2014-Jul-20 13:30N 49°13' W 123°57'0 0.0
2014-Jul-20 12:24N 49°13' W 123°57'0 0.0
2014-Jul-20 11:33N 49°13' W 123°57'0 0.0
2014-Jul-20 10:27N 49°13' W 123°57'0 0.0
2014-Jul-20 09:33N 49°13' W 123°57'0 0.0
2014-Jul-20 08:27N 49°13' W 123°57'0 0.0
2014-Jul-20 07:33N 49°13' W 123°57'0 0.0
2014-Jul-20 06:33N 49°13' W 123°57'0 0.0
2014-Jul-20 04:30N 49°13' W 123°57'0 0.0
2014-Jul-20 03:33N 49°13' W 123°57'0 0.0
2014-Jul-20 02:27N 49°13' W 123°57'0 0.0
2014-Jul-20 01:24N 49°13' W 123°57'0 0.0
2014-Jul-20 00:21N 49°13' W 123°57'0 0.0
2014-Jul-19 23:33N 49°13' W 123°57'0 0.0
2014-Jul-19 20:33N 49°13' W 123°57'0 0.0
2014-Jul-19 19:30N 49°13' W 123°57'0 0.0
2014-Jul-19 18:33N 49°13' W 123°57'0 0.0
2014-Jul-19 17:33N 49°13' W 123°57'0 0.0
2014-Jul-19 16:33N 49°13' W 123°57'0 0.0
2014-Jul-19 15:33N 49°13' W 123°57'0 0.0
2014-Jul-19 14:33N 49°13' W 123°57'0 0.0
2014-Jul-19 13:33N 49°13' W 123°57'0 0.0
2014-Jul-19 12:21N 49°13' W 123°57'0 0.0
2014-Jul-19 10:30N 49°13' W 123°57'0 0.0
2014-Jul-19 09:33N 49°13' W 123°57'0 0.0
2014-Jul-19 08:27N 49°13' W 123°57'0 0.0
2014-Jul-19 07:33N 49°13' W 123°57'0 0.0
2014-Jul-19 06:30N 49°13' W 123°57'0 0.0
2014-Jul-19 05:33N 49°13' W 123°57'0 0.0
2014-Jul-19 04:27N 49°13' W 123°57'0 0.0
2014-Jul-19 03:30N 49°13' W 123°57'0 0.0
2014-Jul-19 02:30N 49°13' W 123°57'0 0.0
2014-Jul-18 23:15N 49°13' W 123°57'0 0.0
2014-Jul-18 22:33N 49°13' W 123°57'0 0.0
2014-Jul-18 21:33N 49°13' W 123°57'0 0.0
2014-Jul-18 19:30N 49°13' W 123°57'0 0.0
2014-Jul-18 18:24N 49°13' W 123°57'0 0.0
2014-Jul-18 17:33N 49°13' W 123°57'0 0.0
2014-Jul-18 15:27N 49°13' W 123°57'0 0.0
2014-Jul-18 14:30N 49°13' W 123°57'0 0.0
2014-Jul-18 13:30N 49°13' W 123°57'0 0.0
2014-Jul-18 12:30N 49°13' W 123°57'0 0.0
2014-Jul-18 11:30N 49°13' W 123°57'0 0.0
2014-Jul-18 10:18N 49°13' W 123°57'0 0.0
2014-Jul-18 08:30N 49°13' W 123°57'0 0.0
2014-Jul-18 07:24N 49°13' W 123°57'0 0.0
2014-Jul-18 06:30N 49°13' W 123°57'0 0.0
2014-Jul-18 05:24N 49°13' W 123°57'0 0.0
2014-Jul-18 04:30N 49°13' W 123°57'0 0.0
2014-Jul-18 03:30N 49°13' W 123°57'0 0.0
2014-Jul-18 02:30N 49°13' W 123°57'0 0.0
2014-Jul-18 01:24N 49°13' W 123°57'0 0.0
2014-Jul-18 00:06N 49°13' W 123°57'0 0.0
2014-Jul-17 23:21N 49°13' W 123°57'0 0.0
2014-Jul-17 18:21N 49°13' W 123°57'0 0.0
2014-Jul-17 15:33N 49°13' W 123°57'0 0.0
2014-Jul-17 13:06N 49°13' W 123°57'0 0.0
2014-Jul-17 12:09N 49°13' W 123°57'0 0.0
2014-Jul-17 10:24N 49°13' W 123°57'0 0.0
2014-Jul-17 09:27N 49°13' W 123°57'0 0.0
2014-Jul-17 08:33N 49°13' W 123°57'0 0.0
2014-Jul-17 07:21N 49°13' W 123°57'0 0.0
2014-Jul-17 06:33N 49°13' W 123°57'0 0.0
2014-Jul-17 05:30N 49°13' W 123°57'0 0.0
2014-Jul-17 04:33N 49°13' W 123°57'0 0.0
2014-Jul-17 03:30N 49°13' W 123°57'0 0.0
2014-Jul-17 02:30N 49°13' W 123°57'0 0.0
2014-Jul-17 01:30N 49°13' W 123°57'0 0.0
2014-Jul-17 00:30N 49°13' W 123°57'0 0.0
2014-Jul-16 23:27N 49°13' W 123°57'0 0.0
2014-Jul-16 22:11N 49°13' W 123°57'2 3.9
2014-Jul-16 21:33N 49°11' W 123°54'9 8.8
2014-Jul-16 20:33N 49°05' W 123°45'9 8.9
2014-Jul-16 19:31N 48°59' W 123°35'8 7.9
2014-Jul-16 18:32N 48°53' W 123°26'9 8.3
2014-Jul-16 17:29N 48°48' W 123°15'5 5.3
2014-Jul-16 16:33N 48°45' W 123°09'1 1.1
2014-Jul-16 15:33N 48°46' W 123°11'2 2.3
2014-Jul-16 14:34N 48°45' W 123°07'4 0.4
2014-Jul-16 04:15N 48°45' W 123°14'0 0.0
2014-Jul-16 02:06N 48°45' W 123°14'0 0.0
2014-Jul-16 01:12N 48°45' W 123°14'6 9.1
2014-Jul-16 00:33N 48°39' W 123°14'8 8.2
2014-Jul-15 23:33N 48°31' W 123°14'3 2.6
2014-Jul-15 22:33N 48°28' W 123°12'1 1.2
2014-Jul-15 21:33N 48°29' W 123°11'2 1.8
2014-Jul-15 20:33N 48°30' W 123°13'2 2.0
2014-Jul-15 19:33N 48°31' W 123°16'2 1.6
2014-Jul-15 18:33N 48°30' W 123°14'1 1.2
2014-Jul-15 17:33N 48°29' W 123°14'1 1.5
2014-Jul-15 16:33N 48°29' W 123°16'1 1.0
2014-Jul-15 15:33N 48°30' W 123°17'6 5.5
2014-Jul-15 14:33N 48°35' W 123°21'5 2.1
2014-Jul-15 12:19N 48°39' W 123°24'0 0.0
2014-Jul-15 11:04N 48°39' W 123°24'0 0.0
2014-Jul-15 10:31N 48°39' W 123°24'0 0.0
2014-Jul-15 09:31N 48°39' W 123°24'0 0.0
2014-Jul-15 08:31N 48°39' W 123°24'0 0.0
2014-Jul-15 07:29N 48°39' W 123°24'0 0.0
2014-Jul-15 06:26N 48°39' W 123°24'0 0.0
2014-Jul-15 05:28N 48°39' W 123°24'0 0.0
2014-Jul-15 04:32N 48°39' W 123°24'  

Dump ship's entire track history